In Rescue
 
Open Full Screen Window  High Contrast Mode
Wind Gusting 00 knots
07
May 20, 2019 2:02 PM CDT
Weather Information
Wind Direction
  070 °
Wind Speed
  07 kt (8 mph)
Wind Gust
  00 kt (0 mph)
Altimeter
30.15 in
Visibility
10 SM
Temperature
13° C
55° F
Dewpoint
02° C
36° F
Humidity
47%
1hr Rain Fall
00.00 in.
24hr Rain Fall
00.00 in.
Sky Condition
Clear
VFR

METAR KDVP 201902Z AUTO 07007KT 10SM CLR 13/02 A3015 RMK AO2 T01260024

FAA Disclaimer: The data displayed is for advisory purposes only and is not to be used for flight planning or operations.